Time;durP1;ratioP1;P1;durP2;ratioP2;P2;SDS_P1;SDS_P2;PMS_P1;PMS_P2;Temp;Humidity;BMP_temperature;BMP_pressure;BME280_temperature;BME280_humidity;BME280_pressure;Samples;Min_cycle;Max_cycle;Signal;HPM_P1;HPM_P2
2022/03/16 00:00:18;;;;;;;16.67;12.30;;;11.10;99.90;;;;;;5101964;28;20224;-47
2022/03/16 00:02:48;;;;;;;15.90;12.50;;;11.30;99.90;;;;;;5108608;28;20231;-50
2022/03/16 00:05:16;;;;;;;18.25;12.88;;;11.30;99.90;;;;;;5109901;28;20205;-45
2022/03/16 00:07:44;;;;;;;17.85;11.80;;;11.20;99.90;;;;;;5107970;28;20283;-51
2022/03/16 00:10:12;;;;;;;23.38;12.75;;;11.00;99.90;;;;;;5102107;28;20251;-44
2022/03/16 00:12:41;;;;;;;18.80;12.98;;;10.70;99.90;;;;;;5101302;28;20523;-48
2022/03/16 00:15:10;;;;;;;20.95;13.07;;;10.40;99.90;;;;;;5100825;28;20220;-50
2022/03/16 00:17:37;;;;;;;16.02;12.30;;;10.30;99.90;;;;;;5104653;28;20232;-52
2022/03/16 00:20:05;;;;;;;23.35;12.05;;;9.80;99.90;;;;;;5105477;28;20240;-48
2022/03/16 00:22:33;;;;;;;16.52;13.57;;;9.80;99.90;;;;;;5103735;28;20201;-46
2022/03/16 00:25:01;;;;;;;14.85;10.65;;;10.10;99.90;;;;;;5103404;28;20205;-47
2022/03/16 00:27:29;;;;;;;20.27;13.25;;;10.30;99.90;;;;;;5102771;28;20226;-48
2022/03/16 00:29:56;;;;;;;23.15;12.52;;;10.60;99.90;;;;;;5099940;28;20232;-45
2022/03/16 00:32:23;;;;;;;23.45;13.88;;;10.60;99.90;;;;;;5101127;28;20242;-46
2022/03/16 00:34:51;;;;;;;22.85;14.10;;;10.40;99.90;;;;;;5101815;28;20197;-46
2022/03/16 00:37:18;;;;;;;21.98;13.00;;;10.50;99.90;;;;;;5100921;28;20200;-51
2022/03/16 00:39:45;;;;;;;24.10;14.40;;;10.70;99.90;;;;;;5100712;28;20221;-45
2022/03/16 00:42:13;;;;;;;22.25;14.82;;;10.70;99.90;;;;;;5099927;28;20201;-47
2022/03/16 00:44:40;;;;;;;20.48;15.00;;;10.80;99.90;;;;;;5100499;28;20208;-46
2022/03/16 00:47:07;;;;;;;24.38;15.07;;;10.80;99.90;;;;;;5100340;28;20229;-47
2022/03/16 00:49:34;;;;;;;24.25;16.65;;;10.40;99.90;;;;;;5100424;28;20216;-47
2022/03/16 00:52:02;;;;;;;30.73;15.88;;;10.20;99.90;;;;;;5100761;28;20197;-45
2022/03/16 00:54:30;;;;;;;30.15;17.60;;;10.00;99.90;;;;;;5100489;28;20540;-49
2022/03/16 00:56:58;;;;;;;26.83;16.80;;;9.60;99.90;;;;;;5100697;28;20205;-47
2022/03/16 00:59:26;;;;;;;24.77;15.43;;;9.60;99.90;;;;;;5100323;28;20207;-48
2022/03/16 01:01:53;;;;;;;31.70;19.20;;;9.40;99.90;;;;;;5100548;28;20253;-49
2022/03/16 01:04:21;;;;;;;32.42;17.63;;;9.30;99.90;;;;;;5100355;28;20219;-45
2022/03/16 01:06:49;;;;;;;33.45;19.10;;;8.90;99.90;;;;;;5100806;28;20212;-47
2022/03/16 01:09:16;;;;;;;27.08;18.15;;;8.80;99.90;;;;;;5100211;28;20209;-47
2022/03/16 01:11:44;;;;;;;25.30;17.55;;;8.80;99.90;;;;;;5100341;28;20199;-45
2022/03/16 01:14:11;;;;;;;24.52;16.95;;;8.80;99.90;;;;;;5099841;28;20399;-48
2022/03/16 01:16:39;;;;;;;23.48;16.70;;;8.40;99.90;;;;;;5100194;28;20208;-48
2022/03/16 01:19:07;;;;;;;23.55;16.35;;;8.30;99.90;;;;;;5100675;28;20385;-48
2022/03/16 01:21:35;;;;;;;20.67;15.98;;;8.00;99.90;;;;;;5099936;28;20297;-49
2022/03/16 01:24:03;;;;;;;23.13;16.33;;;8.00;99.90;;;;;;5100107;28;20543;-47
2022/03/16 01:26:30;;;;;;;28.55;17.38;;;8.10;99.90;;;;;;5100044;28;20223;-48
2022/03/16 01:28:57;;;;;;;33.70;20.55;;;8.30;99.90;;;;;;5100438;28;20207;-45
2022/03/16 01:31:24;;;;;;;22.42;17.48;;;8.20;99.90;;;;;;5074379;28;20289;-47
2022/03/16 01:33:52;;;;;;;27.35;18.27;;;8.20;99.90;;;;;;5094950;28;20278;-46
2022/03/16 01:36:20;;;;;;;31.70;18.20;;;8.10;99.90;;;;;;5104637;28;20199;-44
2022/03/16 01:38:48;;;;;;;22.67;16.70;;;8.30;99.90;;;;;;5105294;28;20205;-46
2022/03/16 01:41:15;;;;;;;23.58;15.98;;;8.10;99.90;;;;;;5104959;28;20246;-46
2022/03/16 01:43:43;;;;;;;19.67;15.20;;;8.10;99.90;;;;;;5103381;28;20529;-50
2022/03/16 01:46:10;;;;;;;22.65;13.55;;;8.00;99.90;;;;;;5104038;28;20287;-48
2022/03/16 01:48:38;;;;;;;23.15;15.98;;;7.80;99.90;;;;;;5103715;28;20257;-47
2022/03/16 01:51:05;;;;;;;23.52;16.33;;;7.60;99.90;;;;;;5104215;28;20215;-48
2022/03/16 01:53:32;;;;;;;17.40;14.35;;;7.40;99.90;;;;;;5102941;28;20498;-48
2022/03/16 01:55:59;;;;;;;23.33;16.42;;;7.50;99.90;;;;;;5103971;28;20458;-43
2022/03/16 01:58:27;;;;;;;25.48;16.45;;;7.30;99.90;;;;;;5103352;28;20618;-47
2022/03/16 02:00:55;;;;;;;23.92;19.63;;;7.40;99.90;;;;;;5103610;28;20206;-51
2022/03/16 02:03:22;;;;;;;30.73;21.80;;;7.40;99.90;;;;;;5102360;28;20195;-46
2022/03/16 02:05:49;;;;;;;28.38;22.13;;;7.30;99.90;;;;;;5103032;28;20194;-49
2022/03/16 02:08:17;;;;;;;24.33;19.23;;;7.20;99.90;;;;;;5103102;28;20226;-46
2022/03/16 02:10:44;;;;;;;28.83;20.55;;;7.20;99.90;;;;;;5101425;28;20215;-49
2022/03/16 02:13:11;;;;;;;29.75;19.95;;;7.20;99.90;;;;;;5103334;28;20195;-52
2022/03/16 02:15:39;;;;;;;27.73;19.35;;;7.20;99.90;;;;;;5102596;28;20198;-46
2022/03/16 02:18:06;;;;;;;27.17;20.83;;;7.20;99.90;;;;;;5103331;28;20198;-48
2022/03/16 02:20:34;;;;;;;27.25;18.85;;;7.20;99.90;;;;;;5102761;28;20218;-48
2022/03/16 02:23:05;;;;;;;24.88;18.05;;;7.10;99.90;;;;;;5102796;28;20375;-46
2022/03/16 02:25:34;;;;;;;20.65;18.02;;;7.20;99.90;;;;;;5102967;28;20221;-48
2022/03/16 02:28:01;;;;;;;28.23;19.23;;;7.20;99.90;;;;;;5103060;28;20214;-48
2022/03/16 02:30:29;;;;;;;23.58;18.20;;;7.20;99.90;;;;;;5102852;28;20564;-45
2022/03/16 02:32:57;;;;;;;23.85;16.83;;;7.40;99.90;;;;;;5102660;28;20392;-49
2022/03/16 02:35:24;;;;;;;23.00;18.73;;;7.30;99.90;;;;;;5102812;28;20194;-47
2022/03/16 02:37:52;;;;;;;32.05;19.27;;;7.30;99.90;;;;;;5102513;28;20202;-45
2022/03/16 02:40:21;;;;;;;23.10;17.92;;;7.40;99.90;;;;;;5102516;28;20280;-48
2022/03/16 02:42:48;;;;;;;26.95;19.45;;;7.30;99.90;;;;;;5103233;28;20198;-44
2022/03/16 02:45:16;;;;;;;27.20;18.92;;;7.30;99.90;;;;;;5103339;28;20199;-45
2022/03/16 02:47:44;;;;;;;24.05;19.05;;;7.30;99.90;;;;;;5102959;28;20234;-48
2022/03/16 02:50:13;;;;;;;27.77;20.85;;;7.40;99.90;;;;;;5102147;28;20293;-45
2022/03/16 02:52:41;;;;;;;27.05;19.98;;;7.30;99.90;;;;;;5102298;28;20202;-48
2022/03/16 02:55:24;;;;;;;24.23;17.00;;;7.10;99.90;;;;;;5102087;28;20203;-50
2022/03/16 02:57:52;;;;;;;25.55;20.13;;;7.20;99.90;;;;;;5102280;28;20206;-45
2022/03/16 03:00:20;;;;;;;22.65;18.50;;;7.40;99.90;;;;;;5101802;28;20221;-44
2022/03/16 03:02:47;;;;;;;26.33;17.55;;;7.40;99.90;;;;;;5101832;28;20509;-44
2022/03/16 03:05:15;;;;;;;27.10;17.48;;;7.40;99.90;;;;;;5101664;28;20283;-49
2022/03/16 03:07:44;;;;;;;22.77;18.65;;;7.30;99.90;;;;;;5102124;28;20253;-48
2022/03/16 03:10:11;;;;;;;21.83;18.48;;;7.40;99.90;;;;;;5101942;28;20237;-48
2022/03/16 03:12:39;;;;;;;24.45;18.17;;;7.40;99.90;;;;;;5101669;28;20217;-49
2022/03/16 03:15:10;;;;;;;27.88;19.30;;;7.50;99.90;;;;;;5102411;28;20199;-48
2022/03/16 03:17:38;;;;;;;25.63;17.73;;;7.60;99.90;;;;;;5101906;28;20197;-46
2022/03/16 03:20:07;;;;;;;23.35;18.15;;;7.50;99.90;;;;;;5102083;28;20321;-47
2022/03/16 03:22:35;;;;;;;27.33;19.58;;;7.80;99.90;;;;;;5101402;28;20204;-46
2022/03/16 03:25:03;;;;;;;23.08;18.38;;;7.90;99.90;;;;;;5102298;28;20202;-48
2022/03/16 03:27:32;;;;;;;23.20;17.25;;;7.80;99.90;;;;;;5101725;28;20544;-47
2022/03/16 03:29:59;;;;;;;25.65;19.10;;;7.50;99.90;;;;;;5101730;28;20223;-49
2022/03/16 03:32:28;;;;;;;21.30;18.98;;;7.30;99.90;;;;;;5101866;28;20195;-45
2022/03/16 03:34:55;;;;;;;24.17;18.38;;;7.60;99.90;;;;;;5101346;28;20202;-44
2022/03/16 03:37:28;;;;;;;20.73;18.30;;;7.50;99.90;;;;;;5101587;28;20198;-49
2022/03/16 03:39:55;;;;;;;17.10;15.27;;;7.50;99.90;;;;;;5100982;28;20222;-44
2022/03/16 03:42:23;;;;;;;25.65;18.73;;;7.60;99.90;;;;;;5101621;28;20205;-46
2022/03/16 03:44:51;;;;;;;23.85;17.45;;;7.80;99.90;;;;;;5100898;28;20220;-50
2022/03/16 03:47:18;;;;;;;27.55;18.73;;;7.80;99.90;;;;;;5101293;28;20310;-47
2022/03/16 03:49:46;;;;;;;21.67;17.63;;;7.90;99.90;;;;;;5100857;28;20268;-48
2022/03/16 03:52:13;;;;;;;22.55;17.67;;;7.90;99.90;;;;;;5101770;28;20256;-44
2022/03/16 03:54:40;;;;;;;25.55;19.77;;;7.90;99.90;;;;;;5101553;28;20535;-47
2022/03/16 03:57:08;;;;;;;22.23;18.38;;;8.20;99.90;;;;;;5101591;28;20217;-51
2022/03/16 03:59:35;;;;;;;25.00;19.38;;;8.20;99.90;;;;;;5101047;28;20234;-45
2022/03/16 04:02:02;;;;;;;23.13;19.95;;;8.20;99.90;;;;;;5100768;28;20241;-47
2022/03/16 04:04:30;;;;;;;29.60;20.55;;;8.40;99.90;;;;;;5100887;28;20420;-46
2022/03/16 04:06:58;;;;;;;24.60;19.63;;;8.30;99.90;;;;;;5100743;28;20217;-45
2022/03/16 04:09:25;;;;;;;24.00;19.10;;;8.30;99.90;;;;;;5101562;28;20195;-45
2022/03/16 04:11:53;;;;;;;29.13;21.15;;;8.20;99.90;;;;;;5099739;28;20418;-48
2022/03/16 04:14:20;;;;;;;27.10;21.30;;;8.30;99.90;;;;;;5100183;28;20205;-46
2022/03/16 04:16:47;;;;;;;28.38;21.52;;;8.20;99.90;;;;;;5100057;28;20508;-46
2022/03/16 04:19:14;;;;;;;22.63;18.23;;;8.10;99.90;;;;;;5100709;28;20234;-49
2022/03/16 04:21:41;;;;;;;22.00;19.25;;;8.00;99.90;;;;;;5100513;28;20546;-47
2022/03/16 04:24:09;;;;;;;25.02;20.35;;;8.00;99.90;;;;;;5100653;28;20236;-51
2022/03/16 04:26:36;;;;;;;27.23;19.73;;;8.00;99.90;;;;;;5100474;28;20525;-45
2022/03/16 04:29:03;;;;;;;26.40;19.60;;;7.90;99.90;;;;;;5100143;28;20240;-50
2022/03/16 04:31:31;;;;;;;26.13;20.25;;;7.80;99.90;;;;;;5100424;28;20284;-46
2022/03/16 04:33:58;;;;;;;28.27;21.10;;;8.10;99.90;;;;;;5100199;28;20239;-45
2022/03/16 04:36:28;;;;;;;30.60;21.67;;;7.90;99.90;;;;;;5100756;28;20203;-55
2022/03/16 04:38:57;;;;;;;25.40;20.77;;;8.00;99.90;;;;;;5088612;28;20195;-47
2022/03/16 04:41:24;;;;;;;22.20;19.45;;;7.90;99.90;;;;;;5086443;28;20230;-49
2022/03/16 04:43:52;;;;;;;29.90;22.15;;;7.90;99.90;;;;;;5081352;28;20196;-47
2022/03/16 04:46:19;;;;;;;30.00;24.55;;;8.10;99.90;;;;;;5092204;28;20200;-48
2022/03/16 04:48:47;;;;;;;27.25;22.08;;;8.10;99.90;;;;;;5091613;28;20247;-46
2022/03/16 04:51:14;;;;;;;32.03;24.23;;;7.50;99.90;;;;;;5090085;28;20210;-49
2022/03/16 04:53:41;;;;;;;31.70;24.70;;;7.60;99.90;;;;;;5088938;28;20191;-49
2022/03/16 04:56:08;;;;;;;36.95;25.60;;;7.50;99.90;;;;;;5097267;28;20501;-47
2022/03/16 04:58:36;;;;;;;37.05;30.17;;;7.40;99.90;;;;;;5104574;28;20197;-48
2022/03/16 05:01:04;;;;;;;37.90;27.30;;;7.10;99.90;;;;;;5077592;28;20217;-46
2022/03/16 05:03:31;;;;;;;38.35;28.23;;;7.20;99.90;;;;;;5076279;28;20215;-47
2022/03/16 05:05:59;;;;;;;40.28;27.67;;;7.30;99.90;;;;;;5083579;28;20195;-45
2022/03/16 05:08:26;;;;;;;33.45;26.17;;;7.30;99.90;;;;;;5083780;28;20226;-44
2022/03/16 05:10:53;;;;;;;33.88;26.20;;;7.30;99.90;;;;;;5074076;28;20220;-43
2022/03/16 05:13:20;;;;;;;36.17;28.02;;;7.30;99.90;;;;;;5070777;28;20207;-49
2022/03/16 05:15:48;;;;;;;40.13;28.27;;;7.30;99.90;;;;;;5087205;28;20195;-45
2022/03/16 05:18:15;;;;;;;35.38;28.77;;;7.30;99.90;;;;;;5088087;28;20207;-46
2022/03/16 05:20:42;;;;;;;37.97;28.15;;;7.50;99.90;;;;;;5087274;28;20280;-46
2022/03/16 05:23:09;;;;;;;37.67;28.08;;;7.70;99.90;;;;;;5084850;28;20225;-47
2022/03/16 05:25:39;;;;;;;38.72;27.25;;;7.80;99.90;;;;;;5084605;28;20246;-44
2022/03/16 05:28:08;;;;;;;34.28;27.00;;;7.90;99.90;;;;;;5082664;28;20257;-49
2022/03/16 05:30:35;;;;;;;42.47;28.35;;;7.90;99.90;;;;;;5083269;28;20558;-48
2022/03/16 05:33:03;;;;;;;39.13;29.58;;;7.80;99.90;;;;;;5073923;28;20432;-49
2022/03/16 05:35:31;;;;;;;38.03;28.65;;;7.70;99.90;;;;;;5064960;28;20478;-44
2022/03/16 05:38:00;;;;;;;32.60;27.80;;;7.90;99.90;;;;;;5066671;28;20207;-46
2022/03/16 05:40:27;;;;;;;37.83;28.50;;;8.00;99.90;;;;;;5095134;28;20225;-45
2022/03/16 05:42:54;;;;;;;40.33;29.52;;;7.90;99.90;;;;;;5091913;28;20463;-47
2022/03/16 05:45:22;;;;;;;37.72;29.83;;;7.80;99.90;;;;;;5092749;28;20203;-43
2022/03/16 05:47:50;;;;;;;33.78;25.80;;;7.70;99.90;;;;;;5096613;28;20545;-45
2022/03/16 05:50:17;;;;;;;37.05;30.52;;;7.70;99.90;;;;;;5079664;28;20226;-49
2022/03/16 05:52:46;;;;;;;38.58;27.05;;;7.70;99.90;;;;;;5087458;28;20218;-48
2022/03/16 05:55:14;;;;;;;36.15;28.35;;;7.60;99.90;;;;;;5063241;28;20207;-48
2022/03/16 05:57:44;;;;;;;34.45;26.45;;;7.60;99.90;;;;;;5086919;28;20229;-46
2022/03/16 06:00:14;;;;;;;37.40;29.67;;;7.70;99.90;;;;;;5063018;28;20287;-50
2022/03/16 06:02:44;;;;;;;41.50;29.73;;;7.60;99.90;;;;;;5075868;28;20202;-49
2022/03/16 06:05:12;;;;;;;37.50;27.08;;;7.60;99.90;;;;;;5074315;28;20211;-47
2022/03/16 06:07:40;;;;;;;34.55;27.98;;;7.60;99.90;;;;;;5080518;28;20220;-45
2022/03/16 06:10:10;;;;;;;39.95;27.50;;;7.50;99.90;;;;;;5085789;28;20534;-45
2022/03/16 06:12:57;;;;;;;38.17;27.13;;;7.70;99.90;;;;;;5079904;28;20203;-46
2022/03/16 06:15:26;;;;;;;38.58;28.52;;;7.70;99.90;;;;;;5089633;28;20529;-47
2022/03/16 06:17:59;;;;;;;36.47;25.85;;;7.60;99.90;;;;;;5103027;28;20246;-47
2022/03/16 06:20:31;;;;;;;34.90;27.05;;;7.70;99.90;;;;;;5101498;28;20254;-49
2022/03/16 06:22:59;;;;;;;40.53;28.42;;;7.60;99.90;;;;;;5102996;28;20236;-48
2022/03/16 06:25:26;;;;;;;38.70;28.40;;;7.50;99.90;;;;;;5102008;28;20198;-47
2022/03/16 06:27:54;;;;;;;37.97;27.98;;;7.50;99.90;;;;;;5099562;28;20222;-44
2022/03/16 06:30:21;;;;;;;40.05;28.92;;;7.50;99.90;;;;;;5075967;28;20651;-46
2022/03/16 06:32:49;;;;;;;36.90;29.10;;;7.40;99.90;;;;;;5063771;28;20211;-47
2022/03/16 06:35:16;;;;;;;41.67;28.70;;;7.50;99.90;;;;;;5087504;28;20284;-50
2022/03/16 06:37:44;;;;;;;46.25;32.67;;;7.50;99.90;;;;;;5081576;28;20250;-47
2022/03/16 06:40:13;;;;;;;39.38;28.02;;;7.50;99.90;;;;;;5061921;28;20222;-45
2022/03/16 06:42:48;;;;;;;47.25;30.67;;;7.60;99.90;;;;;;5077200;28;20516;-48
2022/03/16 06:45:16;;;;;;;40.05;27.60;;;7.60;99.90;;;;;;5086616;28;20206;-44
2022/03/16 06:47:44;;;;;;;38.40;26.15;;;7.60;99.90;;;;;;5101894;28;20224;-47
2022/03/16 06:50:12;;;;;;;36.63;28.25;;;7.60;99.90;;;;;;5101774;28;20223;-46
2022/03/16 06:52:40;;;;;;;44.40;29.13;;;7.70;99.90;;;;;;5089625;28;20198;-48
2022/03/16 06:55:10;;;;;;;48.50;31.02;;;7.70;99.90;;;;;;5093473;28;20199;-46
2022/03/16 06:57:37;;;;;;;40.45;30.08;;;7.50;99.90;;;;;;5101872;28;20199;-47
2022/03/16 07:00:07;;;;;;;46.42;31.38;;;7.50;99.90;;;;;;5102387;28;20218;-45
2022/03/16 07:02:51;;;;;;;50.90;30.77;;;7.60;99.90;;;;;;5101560;28;20278;-48
2022/03/16 07:05:20;;;;;;;46.15;30.25;;;7.60;99.90;;;;;;5102204;28;20255;-47
2022/03/16 07:07:48;;;;;;;41.72;29.25;;;7.70;99.90;;;;;;5100266;28;20218;-48
2022/03/16 07:10:16;;;;;;;55.22;32.80;;;7.60;99.90;;;;;;5094157;28;20243;-52
2022/03/16 07:12:43;;;;;;;46.95;31.40;;;7.80;99.90;;;;;;5101757;28;20541;-46
2022/03/16 07:15:11;;;;;;;43.65;30.88;;;7.90;99.90;;;;;;5101644;28;20203;-49
2022/03/16 07:17:38;;;;;;;47.15;32.97;;;8.10;99.90;;;;;;5101346;28;20230;-48
2022/03/16 07:20:06;;;;;;;44.70;30.45;;;8.20;99.90;;;;;;5101838;28;20307;-47
2022/03/16 07:22:35;;;;;;;41.45;29.42;;;8.50;99.90;;;;;;5101889;28;20196;-47
2022/03/16 07:25:20;;;;;;;45.33;30.50;;;8.70;99.90;;;;;;5102018;28;20259;-54
2022/03/16 07:27:49;;;;;;;45.38;31.92;;;8.80;99.90;;;;;;5094327;28;20215;-47
2022/03/16 07:30:17;;;;;;;52.25;32.90;;;8.80;99.90;;;;;;5066121;28;20457;-45
2022/03/16 07:32:44;;;;;;;45.75;28.65;;;8.90;99.90;;;;;;5066303;28;20213;-47
2022/03/16 07:35:12;;;;;;;46.53;30.75;;;9.10;99.90;;;;;;5066987;28;20349;-46
2022/03/16 07:37:42;;;;;;;46.58;31.88;;;9.00;99.90;;;;;;5067487;28;20212;-46
2022/03/16 07:40:10;;;;;;;55.40;33.03;;;8.70;99.90;;;;;;5073789;28;20220;-47
2022/03/16 07:42:38;;;;;;;49.85;35.00;;;8.30;99.90;;;;;;5092485;28;20219;-45
2022/03/16 07:45:06;;;;;;;47.28;34.40;;;8.30;99.90;;;;;;5100369;28;20207;-49
2022/03/16 07:47:33;;;;;;;51.50;33.80;;;8.40;99.90;;;;;;5100958;28;20208;-46
2022/03/16 07:50:07;;;;;;;58.78;34.45;;;8.40;99.90;;;;;;5101211;28;20224;-49
2022/03/16 07:52:34;;;;;;;53.92;37.20;;;8.50;99.90;;;;;;5100768;28;20208;-47
2022/03/16 07:55:01;;;;;;;51.22;35.67;;;8.60;99.90;;;;;;5101199;28;20202;-45
2022/03/16 07:57:28;;;;;;;50.10;34.78;;;8.70;99.90;;;;;;5101085;28;20201;-48
2022/03/16 07:59:56;;;;;;;55.58;38.20;;;8.80;99.90;;;;;;5100968;28;20574;-45
2022/03/16 08:02:27;;;;;;;55.17;35.97;;;8.90;99.90;;;;;;5101155;28;20525;-45
2022/03/16 08:04:57;;;;;;;57.13;37.47;;;9.20;99.90;;;;;;5100556;28;20701;-49
2022/03/16 08:07:26;;;;;;;45.53;32.97;;;9.60;99.90;;;;;;5100846;28;20205;-50
2022/03/16 08:09:55;;;;;;;49.60;33.65;;;10.10;99.90;;;;;;5100662;28;20228;-50
2022/03/16 08:12:24;;;;;;;43.83;33.90;;;10.50;99.90;;;;;;5101132;28;20212;-46
2022/03/16 08:14:51;;;;;;;49.55;31.73;;;10.40;99.90;;;;;;5099986;28;20197;-49
2022/03/16 08:17:19;;;;;;;44.88;32.45;;;10.50;99.90;;;;;;5100925;28;20217;-51
2022/03/16 08:19:46;;;;;;;47.45;33.17;;;11.30;99.90;;;;;;5100008;28;20228;-50
2022/03/16 08:22:23;;;;;;;73.95;36.90;;;11.60;99.90;;;;;;5101114;28;20209;-50
2022/03/16 08:24:51;;;;;;;50.42;32.65;;;11.90;99.90;;;;;;5101229;28;20497;-49
2022/03/16 08:27:20;;;;;;;39.17;27.80;;;12.10;99.90;;;;;;5100723;28;20535;-53
2022/03/16 08:29:47;;;;;;;45.30;31.40;;;12.20;99.90;;;;;;5100031;28;20229;-47
2022/03/16 08:32:15;;;;;;;40.80;30.30;;;12.70;99.90;;;;;;5100171;28;20198;-51
2022/03/16 08:34:42;;;;;;;37.95;28.58;;;13.20;99.90;;;;;;5100257;28;20217;-50
2022/03/16 08:37:10;;;;;;;37.03;28.63;;;14.20;99.90;;;;;;5100689;28;20274;-48
2022/03/16 08:39:39;;;;;;;36.13;29.00;;;15.20;99.90;;;;;;5100024;28;20223;-47
2022/03/16 08:42:08;;;;;;;32.97;27.30;;;16.30;99.90;;;;;;5099749;28;20478;-48
2022/03/16 08:44:35;;;;;;;34.10;26.43;;;16.60;99.90;;;;;;5100052;28;20430;-47
2022/03/16 08:47:03;;;;;;;33.07;28.20;;;17.10;99.90;;;;;;5100627;28;20407;-46
2022/03/16 08:49:31;;;;;;;40.67;28.10;;;15.40;99.90;;;;;;5099809;28;20468;-47
2022/03/16 08:51:58;;;;;;;35.17;26.80;;;14.50;99.90;;;;;;5100563;28;20410;-47
2022/03/16 08:54:26;;;;;;;36.57;26.70;;;14.60;99.90;;;;;;5104562;28;20433;-50
2022/03/16 08:56:54;;;;;;;40.90;28.87;;;15.10;99.90;;;;;;5106481;28;20415;-50
2022/03/16 08:59:23;;;;;;;43.03;28.15;;;14.10;99.90;;;;;;5106101;28;20428;-51
2022/03/16 09:01:51;;;;;;;39.13;28.38;;;13.50;99.90;;;;;;5107041;28;20206;-49
2022/03/16 09:04:19;;;;;;;33.03;27.83;;;12.70;99.90;;;;;;5107775;28;20278;-47
2022/03/16 09:06:48;;;;;;;32.05;25.17;;;12.30;99.90;;;;;;5100365;28;20198;-48
2022/03/16 09:09:15;;;;;;;37.20;27.70;;;11.90;99.90;;;;;;5100708;28;20224;-46
2022/03/16 09:11:43;;;;;;;35.95;27.25;;;11.80;99.90;;;;;;5100887;28;20198;-46
2022/03/16 09:14:10;;;;;;;34.45;28.48;;;12.00;99.90;;;;;;5100319;28;20201;-51
2022/03/16 09:16:37;;;;;;;36.38;27.60;;;11.80;99.90;;;;;;5099877;28;20198;-47
2022/03/16 09:19:04;;;;;;;37.05;27.77;;;11.50;99.90;;;;;;5100988;28;20209;-48
2022/03/16 09:21:32;;;;;;;39.78;27.25;;;11.30;99.90;;;;;;5100266;28;20222;-46
2022/03/16 09:23:59;;;;;;;39.70;29.85;;;11.20;99.90;;;;;;5100441;28;20201;-48
2022/03/16 09:26:28;;;;;;;48.83;26.85;;;11.20;99.90;;;;;;5100567;28;20206;-46
2022/03/16 09:28:56;;;;;;;36.83;27.98;;;11.20;99.90;;;;;;5100343;28;20289;-48
2022/03/16 09:31:24;;;;;;;37.80;29.92;;;11.30;99.90;;;;;;5100300;28;20214;-48
2022/03/16 09:33:51;;;;;;;38.00;27.25;;;11.50;99.90;;;;;;5099997;28;20247;-49
2022/03/16 09:36:18;;;;;;;42.33;29.20;;;11.10;99.90;;;;;;5101206;28;20198;-49
2022/03/16 09:38:45;;;;;;;43.65;28.05;;;10.80;99.90;;;;;;5102155;28;20217;-50
2022/03/16 09:41:12;;;;;;;38.05;25.50;;;10.80;99.90;;;;;;5103584;28;20478;-45
2022/03/16 09:43:43;;;;;;;39.42;26.23;;;10.70;99.90;;;;;;5102760;28;20547;-50
2022/03/16 09:46:21;;;;;;;34.42;24.85;;;10.90;99.90;;;;;;5101786;28;20240;-47
2022/03/16 09:48:48;;;;;;;34.15;23.42;;;11.30;99.90;;;;;;5100240;28;20569;-48
2022/03/16 09:51:16;;;;;;;31.15;23.67;;;11.70;99.90;;;;;;5099809;28;20259;-46
2022/03/16 09:53:45;;;;;;;33.28;25.88;;;11.50;99.90;;;;;;5101003;28;20203;-50
2022/03/16 09:56:21;;;;;;;32.95;24.15;;;11.60;99.90;;;;;;5103429;28;20202;-48
2022/03/16 09:58:49;;;;;;;34.97;25.88;;;11.70;99.90;;;;;;5103923;28;20198;-48
2022/03/16 10:01:18;;;;;;;30.08;20.92;;;11.80;99.90;;;;;;5103234;28;20217;-48
2022/03/16 10:03:49;;;;;;;35.08;23.85;;;11.80;99.90;;;;;;5103231;28;20291;-50
2022/03/16 10:06:22;;;;;;;38.00;23.92;;;11.80;99.90;;;;;;5103417;28;20243;-47
2022/03/16 10:14:23;;;;;;;30.98;23.58;;;12.10;99.90;;;;;;5102851;28;20205;-48
2022/03/16 10:19:54;;;;;;;35.70;24.02;;;11.90;99.90;;;;;;5103264;28;20263;-47
2022/03/16 10:22:30;;;;;;;33.42;25.27;;;12.00;99.90;;;;;;5103388;28;20213;-47
2022/03/16 10:25:07;;;;;;;30.23;22.20;;;12.00;99.90;;;;;;5102680;28;20210;-49
2022/03/16 10:27:36;;;;;;;34.88;22.58;;;12.10;99.90;;;;;;5100862;28;20235;-49
2022/03/16 10:30:06;;;;;;;31.02;21.48;;;12.00;99.90;;;;;;5062078;28;20242;-47
2022/03/16 10:32:40;;;;;;;21.70;17.63;;;12.00;99.90;;;;;;5062517;28;20219;-49
2022/03/16 10:35:08;;;;;;;25.92;18.85;;;11.80;99.90;;;;;;5061879;28;20500;-49
2022/03/16 10:37:37;;;;;;;31.67;20.83;;;11.80;99.90;;;;;;5062162;28;20215;-49
2022/03/16 10:40:14;;;;;;;30.52;20.98;;;12.00;99.90;;;;;;5062446;28;20230;-45
2022/03/16 10:48:19;;;;;;;27.35;20.48;;;12.00;99.90;;;;;;5062378;28;20195;-48
2022/03/16 10:50:50;;;;;;;31.42;20.52;;;12.00;99.90;;;;;;5061766;28;20534;-50
2022/03/16 10:53:18;;;;;;;27.02;20.30;;;11.80;99.90;;;;;;5062255;28;20214;-50
2022/03/16 10:55:47;;;;;;;26.73;18.95;;;11.90;99.90;;;;;;5061367;28;20203;-49
2022/03/16 10:58:15;;;;;;;28.02;20.52;;;12.20;99.90;;;;;;5062156;28;20234;-47
2022/03/16 11:00:43;;;;;;;29.38;19.95;;;12.30;99.90;;;;;;5062900;28;20215;-46
2022/03/16 11:03:17;;;;;;;26.80;20.45;;;12.30;99.90;;;;;;5063249;28;20203;-49
2022/03/16 11:05:45;;;;;;;24.20;20.30;;;12.40;99.90;;;;;;5062917;28;20195;-47
2022/03/16 11:08:14;;;;;;;28.27;20.05;;;12.30;99.90;;;;;;5063309;28;20210;-47
2022/03/16 11:10:43;;;;;;;24.95;20.98;;;12.40;99.90;;;;;;5063005;28;20238;-46
2022/03/16 11:13:30;;;;;;;26.30;20.98;;;12.50;99.90;;;;;;5063179;28;20472;-52
2022/03/16 11:16:00;;;;;;;29.75;20.83;;;12.50;99.90;;;;;;5063412;28;20196;-49
2022/03/16 11:18:28;;;;;;;23.92;19.75;;;12.40;99.90;;;;;;5061981;28;20204;-46
2022/03/16 11:21:04;;;;;;;25.80;20.98;;;12.50;99.90;;;;;;5062285;28;20476;-48
2022/03/16 11:26:37;;;;;;;28.33;21.35;;;12.50;99.90;;;;;;5065845;28;20208;-48
2022/03/16 11:29:47;;;;;;;44.33;21.77;;;12.70;99.90;;;;;;5066304;28;20422;-51
2022/03/16 11:32:16;;;;;;;26.13;19.85;;;12.90;99.90;;;;;;5062571;28;20255;-47
2022/03/16 11:34:54;;;;;;;26.67;20.33;;;13.00;99.90;;;;;;5062417;28;20202;-50
2022/03/16 11:37:45;;;;;;;25.65;20.40;;;12.70;99.90;;;;;;5062191;28;20233;-50
2022/03/16 11:40:24;;;;;;;32.05;21.60;;;12.80;99.90;;;;;;5061432;28;20305;-46
2022/03/16 11:43:11;;;;;;;27.75;21.27;;;13.40;99.90;;;;;;5061260;28;20218;-47
2022/03/16 11:45:43;;;;;;;26.15;20.33;;;13.50;99.90;;;;;;5060843;28;20519;-46
2022/03/16 11:48:31;;;;;;;29.08;18.02;;;13.40;99.90;;;;;;5061376;28;20271;-48
2022/03/16 11:51:13;;;;;;;20.23;16.90;;;13.20;99.90;;;;;;5061043;28;20216;-45
2022/03/16 11:56:23;;;;;;;20.98;16.85;;;13.20;99.90;;;;;;5060876;28;20266;-45
2022/03/16 11:58:55;;;;;;;31.67;20.60;;;13.50;99.90;;;;;;5060378;28;20206;-52
2022/03/16 12:01:29;;;;;;;22.42;16.92;;;13.60;99.90;;;;;;5059262;28;20229;-51
2022/03/16 12:04:19;;;;;;;23.17;18.52;;;13.70;99.90;;;;;;5060171;28;20253;-49
2022/03/16 12:06:54;;;;;;;22.35;15.52;;;13.50;99.90;;;;;;5060315;28;20200;-54
2022/03/16 12:09:39;;;;;;;19.35;13.65;;;13.60;99.90;;;;;;5060270;28;20230;-49
2022/03/16 12:15:02;;;;;;;19.05;13.88;;;13.10;99.90;;;;;;5061715;28;20195;-46
2022/03/16 12:17:29;;;;;;;19.75;13.88;;;12.90;99.90;;;;;;5061092;28;20203;-46
2022/03/16 12:20:10;;;;;;;15.70;14.00;;;12.90;99.90;;;;;;5060444;28;20549;-51
2022/03/16 12:22:49;;;;;;;17.73;13.48;;;13.10;99.90;;;;;;5060130;28;20200;-49
2022/03/16 12:25:37;;;;;;;18.75;13.40;;;13.60;99.90;;;;;;5060280;28;20203;-51
2022/03/16 12:30:58;;;;;;;18.10;14.05;;;13.90;99.90;;;;;;5060247;28;20410;-48
2022/03/16 12:33:32;;;;;;;17.08;13.38;;;14.10;99.90;;;;;;5060405;28;20510;-47
2022/03/16 12:36:02;;;;;;;17.95;13.57;;;13.80;99.90;;;;;;5059825;28;20509;-48
2022/03/16 12:38:32;;;;;;;20.23;14.20;;;13.60;99.90;;;;;;5060258;28;20522;-48
2022/03/16 12:43:47;;;;;;;15.43;11.90;;;13.70;99.90;;;;;;5060299;28;20540;-50
2022/03/16 12:46:24;;;;;;;15.80;13.23;;;13.60;99.90;;;;;;5061017;28;20214;-49
2022/03/16 12:48:57;;;;;;;14.43;12.93;;;13.60;99.90;;;;;;5059429;28;20226;-48
2022/03/16 12:52:03;;;;;;;17.83;15.30;;;13.30;99.90;;;;;;5060206;28;20215;-48
2022/03/16 12:54:34;;;;;;;20.10;14.93;;;13.60;99.90;;;;;;5057631;28;20303;-49
2022/03/16 12:57:11;;;;;;;29.20;14.38;;;13.60;99.90;;;;;;5057847;28;20214;-47
2022/03/16 12:59:39;;;;;;;21.75;16.45;;;13.70;99.90;;;;;;5058847;28;20552;-45
2022/03/16 13:02:10;;;;;;;18.77;16.80;;;13.70;99.90;;;;;;5060375;28;20206;-50
2022/03/16 13:04:40;;;;;;;17.60;14.90;;;14.00;99.90;;;;;;5059164;28;20207;-48
2022/03/16 13:07:08;;;;;;;19.95;16.08;;;13.70;99.90;;;;;;5059647;28;20206;-50
2022/03/16 13:09:41;;;;;;;24.05;18.58;;;13.40;99.90;;;;;;5059267;28;20261;-46
2022/03/16 13:12:10;;;;;;;20.70;17.73;;;13.10;99.90;;;;;;5059196;28;20203;-52